Time;durP1;ratioP1;P1;durP2;ratioP2;P2;SDS_P1;SDS_P2;PMS_P1;PMS_P2;Temp;Humidity;BMP_temperature;BMP_pressure;BME280_temperature;BME280_humidity;BME280_pressure;Samples;Min_cycle;Max_cycle;Signal;HPM_P1;HPM_P2
2022/12/01 00:02:13;;;;;;;9.40;4.90;;;5.80;99.90;;;;;;5032851;28;20168;-65
2022/12/01 00:04:38;;;;;;;8.13;4.63;;;5.80;99.90;;;;;;5024067;28;20037;-65
2022/12/01 00:07:04;;;;;;;9.10;5.32;;;5.80;99.90;;;;;;5015327;28;20394;-67
2022/12/01 00:12:14;;;;;;;9.57;5.05;;;5.80;99.90;;;;;;5035954;28;20048;-65
2022/12/01 00:14:40;;;;;;;9.88;5.10;;;5.70;99.90;;;;;;5035980;28;20029;-65
2022/12/01 00:17:05;;;;;;;9.05;4.43;;;5.70;99.90;;;;;;5036024;28;20071;-65
2022/12/01 00:19:31;;;;;;;11.05;4.70;;;5.70;99.90;;;;;;5035859;28;20382;-65
2022/12/01 00:21:57;;;;;;;8.88;4.72;;;5.70;99.90;;;;;;5036114;28;20037;-65
2022/12/01 00:24:24;;;;;;;10.60;4.97;;;5.70;99.90;;;;;;5035701;28;20400;-65
2022/12/01 00:26:49;;;;;;;9.77;5.32;;;5.80;99.90;;;;;;5034932;28;20124;-65
2022/12/01 00:29:15;;;;;;;9.80;5.30;;;5.70;99.90;;;;;;5036065;28;20120;-65
2022/12/01 00:31:41;;;;;;;8.98;4.93;;;5.70;99.90;;;;;;5036118;28;20068;-66
2022/12/01 00:34:21;;;;;;;9.48;5.45;;;5.80;99.90;;;;;;5035905;28;20515;-65
2022/12/01 00:36:46;;;;;;;8.02;4.82;;;5.70;99.90;;;;;;5035819;28;20076;-65
2022/12/01 00:39:12;;;;;;;7.60;4.97;;;5.80;99.90;;;;;;5035701;28;20041;-65
2022/12/01 00:41:38;;;;;;;10.95;5.20;;;5.70;99.90;;;;;;5035402;28;20036;-65
2022/12/01 00:44:04;;;;;;;9.10;4.90;;;5.70;99.90;;;;;;5035890;28;20084;-65
2022/12/01 00:46:30;;;;;;;9.38;5.05;;;5.70;99.90;;;;;;5035880;28;20056;-65
2022/12/01 00:48:56;;;;;;;8.80;5.10;;;5.70;99.90;;;;;;5035946;28;20080;-65
2022/12/01 00:51:21;;;;;;;8.63;5.25;;;5.70;99.90;;;;;;5019261;28;20029;-65
2022/12/01 00:53:47;;;;;;;9.82;5.53;;;5.70;99.90;;;;;;5014528;28;20045;-65
2022/12/01 00:56:13;;;;;;;10.63;5.15;;;5.70;99.90;;;;;;5032759;28;20088;-65
2022/12/01 00:58:39;;;;;;;9.23;5.25;;;5.70;99.90;;;;;;5034949;28;20124;-65
2022/12/01 01:01:05;;;;;;;9.88;5.30;;;5.80;99.90;;;;;;5035342;28;20072;-65
2022/12/01 01:03:32;;;;;;;9.18;5.07;;;5.70;99.90;;;;;;5035035;28;20068;-65
2022/12/01 01:06:07;;;;;;;8.63;4.80;;;5.70;99.90;;;;;;5035545;28;20029;-65
2022/12/01 01:08:32;;;;;;;10.70;5.97;;;5.70;99.90;;;;;;5035248;28;20040;-65
2022/12/01 01:11:00;;;;;;;10.45;5.63;;;5.70;99.90;;;;;;5035371;28;20041;-65
2022/12/01 01:13:26;;;;;;;11.40;6.32;;;5.70;99.90;;;;;;5020856;28;20038;-65
2022/12/01 01:16:13;;;;;;;9.70;5.53;;;5.70;99.90;;;;;;5031736;28;20049;-65
2022/12/01 01:18:39;;;;;;;10.32;6.03;;;5.70;99.90;;;;;;5035327;28;20041;-65
2022/12/01 01:21:08;;;;;;;9.80;5.70;;;5.70;99.90;;;;;;5034661;28;20099;-65
2022/12/01 01:23:33;;;;;;;10.00;6.00;;;5.70;99.90;;;;;;5034607;28;20041;-65
2022/12/01 01:26:04;;;;;;;11.30;5.70;;;5.60;99.90;;;;;;5023802;28;20029;-65
2022/12/01 01:28:31;;;;;;;10.18;6.13;;;5.60;99.90;;;;;;5015370;28;20108;-65
2022/12/01 01:30:57;;;;;;;8.20;5.30;;;5.60;99.90;;;;;;5034186;28;20029;-65
2022/12/01 01:33:23;;;;;;;9.23;5.72;;;5.60;99.90;;;;;;5035323;28;20049;-68
2022/12/01 01:35:49;;;;;;;10.18;5.80;;;5.60;99.90;;;;;;5035160;28;20037;-65
2022/12/01 01:38:14;;;;;;;14.10;6.50;;;5.60;99.90;;;;;;5035228;28;20044;-66
2022/12/01 01:40:44;;;;;;;8.55;5.07;;;5.60;99.90;;;;;;5035000;28;20059;-65
2022/12/01 01:43:15;;;;;;;10.38;6.53;;;5.60;99.90;;;;;;5015821;28;20048;-65
2022/12/01 01:45:40;;;;;;;;;;;5.60;99.90;;;;;;5015788;28;20129;-66
2022/12/01 01:48:07;;;;;;;10.75;6.30;;;5.60;99.90;;;;;;5033530;28;20332;-65
2022/12/01 01:50:33;;;;;;;10.27;5.45;;;5.60;99.90;;;;;;5034994;28;20041;-65
2022/12/01 01:53:09;;;;;;;12.25;6.03;;;5.60;99.90;;;;;;5026426;28;20075;-65
2022/12/01 01:55:35;;;;;;;9.27;5.60;;;5.60;99.90;;;;;;5034305;28;20382;-68
2022/12/01 01:58:03;;;;;;;9.45;5.55;;;5.60;99.90;;;;;;5032122;28;20048;-67
2022/12/01 02:00:29;;;;;;;10.02;5.57;;;5.60;99.90;;;;;;5033898;28;20033;-65
2022/12/01 02:02:56;;;;;;;11.05;6.28;;;5.50;99.90;;;;;;5034133;28;20450;-68
2022/12/01 02:05:28;;;;;;;8.80;5.53;;;5.60;99.90;;;;;;5033839;28;20041;-65
2022/12/01 02:07:57;;;;;;;9.48;5.28;;;5.60;99.90;;;;;;5033517;28;20049;-65
2022/12/01 02:11:12;;;;;;;8.98;4.70;;;5.60;99.90;;;;;;5032340;28;20041;-66
2022/12/01 02:13:46;;;;;;;8.48;5.20;;;5.60;99.90;;;;;;5034413;28;20041;-65
2022/12/01 02:16:22;;;;;;;6.60;4.32;;;5.60;99.90;;;;;;5033709;28;20102;-65
2022/12/01 02:18:59;;;;;;;8.50;4.28;;;5.60;99.90;;;;;;5034091;28;20049;-66
2022/12/01 02:21:40;;;;;;;8.73;5.25;;;5.60;99.90;;;;;;5033515;28;20542;-65
2022/12/01 02:24:36;;;;;;;8.13;4.38;;;5.60;99.90;;;;;;5020569;28;20033;-65
2022/12/01 02:27:26;;;;;;;7.50;4.25;;;5.50;99.90;;;;;;5032014;28;20033;-65
2022/12/01 02:29:55;;;;;;;7.67;4.37;;;5.50;99.90;;;;;;5033827;28;20095;-65
2022/12/01 02:32:40;;;;;;;8.30;4.30;;;5.50;99.90;;;;;;5018554;28;20498;-65
2022/12/01 02:35:19;;;;;;;10.98;5.30;;;5.50;99.90;;;;;;5023037;28;20466;-65
2022/12/01 02:38:08;;;;;;;8.68;5.18;;;5.50;99.90;;;;;;5034064;28;20046;-65
2022/12/01 02:40:45;;;;;;;6.03;4.22;;;5.50;99.90;;;;;;5018753;28;20038;-65
2022/12/01 02:43:29;;;;;;;7.65;4.32;;;5.50;99.90;;;;;;5034105;28;20045;-65
2022/12/01 02:46:26;;;;;;;8.32;4.32;;;5.50;99.90;;;;;;5033674;28;20083;-65
2022/12/01 02:48:57;;;;;;;7.72;4.32;;;5.40;99.90;;;;;;5033620;28;20120;-65
2022/12/01 02:51:25;;;;;;;;;;;5.50;99.90;;;;;;5034187;28;20067;-65
2022/12/01 02:53:52;;;;;;;7.25;3.90;;;5.40;99.90;;;;;;5033514;28;19909;-65
2022/12/01 02:56:20;;;;;;;7.47;4.45;;;5.50;99.90;;;;;;5033373;28;20056;-64
2022/12/01 02:58:46;;;;;;;9.27;4.60;;;5.40;99.90;;;;;;5033643;28;20190;-65
2022/12/01 03:01:49;;;;;;;8.40;4.15;;;5.40;99.90;;;;;;5033723;28;20504;-65
2022/12/01 03:04:49;;;;;;;9.05;4.05;;;5.40;99.90;;;;;;5016493;28;20540;-64
2022/12/01 03:07:34;;;;;;;9.23;4.07;;;5.40;99.90;;;;;;5032634;28;20037;-65
2022/12/01 03:10:06;;;;;;;7.68;4.35;;;5.40;99.90;;;;;;5017578;28;20033;-65
2022/12/01 03:12:54;;;;;;;7.10;4.13;;;5.40;99.90;;;;;;5033174;28;20041;-65
2022/12/01 03:15:43;;;;;;;7.80;4.40;;;5.50;99.90;;;;;;5033399;28;20033;-65
2022/12/01 03:18:24;;;;;;;7.57;4.50;;;5.40;99.90;;;;;;5031526;28;20378;-65
2022/12/01 03:21:09;;;;;;;7.88;4.57;;;5.40;99.90;;;;;;5037246;28;20132;-65
2022/12/01 03:23:39;;;;;;;6.82;3.83;;;5.40;99.90;;;;;;5037247;28;20049;-65
2022/12/01 03:26:09;;;;;;;9.50;4.72;;;5.40;99.90;;;;;;5027443;28;20030;-65
2022/12/01 03:28:49;;;;;;;7.93;4.70;;;5.40;99.90;;;;;;5017923;28;20061;-65
2022/12/01 03:31:19;;;;;;;6.53;4.10;;;5.40;99.90;;;;;;5036707;28;20033;-65
2022/12/01 03:33:56;;;;;;;7.95;4.55;;;5.40;99.90;;;;;;5032726;28;20797;-65
2022/12/01 03:36:26;;;;;;;6.88;4.03;;;5.40;99.90;;;;;;5035866;28;20045;-65
2022/12/01 03:38:59;;;;;;;6.10;3.95;;;5.40;99.90;;;;;;5037249;28;20073;-65
2022/12/01 03:41:29;;;;;;;5.60;3.80;;;5.40;99.90;;;;;;5037260;28;20041;-65
2022/12/01 03:44:00;;;;;;;;;;;5.30;99.90;;;;;;5037536;28;20049;-65
2022/12/01 03:46:45;;;;;;;;;;;5.30;99.90;;;;;;5037648;28;20004;-65
2022/12/01 03:49:12;;;;;;;6.78;4.10;;;5.30;99.90;;;;;;5037122;28;19963;-65
2022/12/01 03:51:54;;;;;;;7.75;4.65;;;5.30;99.90;;;;;;5037075;28;20107;-64
2022/12/01 03:54:44;;;;;;;8.30;4.15;;;5.30;99.90;;;;;;5036954;28;20049;-65
2022/12/01 03:57:16;;;;;;;7.75;4.53;;;5.30;99.90;;;;;;5036308;28;20073;-65
2022/12/01 03:59:44;;;;;;;9.85;4.90;;;5.30;99.90;;;;;;5035377;28;20440;-65
2022/12/01 04:02:10;;;;;;;8.82;4.15;;;5.20;99.90;;;;;;5036671;28;20048;-65
2022/12/01 04:04:36;;;;;;;7.93;4.07;;;5.30;99.90;;;;;;5036231;28;20072;-65
2022/12/01 04:07:03;;;;;;;8.82;4.40;;;5.20;99.90;;;;;;5036597;28;20069;-64
2022/12/01 04:09:29;;;;;;;7.07;4.22;;;5.20;99.90;;;;;;5036262;28;20033;-65
2022/12/01 04:14:38;;;;;;;7.78;4.18;;;5.20;99.90;;;;;;5026849;28;20045;-67
2022/12/01 04:17:07;;;;;;;7.90;4.72;;;5.20;99.90;;;;;;5027104;28;20050;-65
2022/12/01 04:19:33;;;;;;;9.30;5.15;;;5.20;99.90;;;;;;5036307;28;20036;-64
2022/12/01 04:21:58;;;;;;;8.70;4.82;;;5.20;99.90;;;;;;5036154;28;20045;-65
2022/12/01 04:24:24;;;;;;;8.65;5.03;;;5.20;99.90;;;;;;5035730;28;20049;-65
2022/12/01 04:26:50;;;;;;;10.20;5.32;;;5.20;99.90;;;;;;5036172;28;20029;-65
2022/12/01 04:29:16;;;;;;;8.80;5.03;;;5.20;99.90;;;;;;5036008;28;20045;-66
2022/12/01 04:31:41;;;;;;;10.02;4.63;;;5.20;99.90;;;;;;5034733;28;20037;-68
2022/12/01 04:34:09;;;;;;;9.52;4.78;;;5.10;99.90;;;;;;5035893;28;20065;-65
2022/12/01 04:36:34;;;;;;;11.63;5.72;;;5.10;99.90;;;;;;5034783;28;20126;-64
2022/12/01 04:39:00;;;;;;;9.23;5.13;;;5.10;99.90;;;;;;5035849;28;20489;-65
2022/12/01 04:41:26;;;;;;;10.43;4.97;;;5.10;99.90;;;;;;5017341;28;20048;-65
2022/12/01 04:43:53;;;;;;;10.77;5.78;;;5.10;99.90;;;;;;5016540;28;20113;-65
2022/12/01 04:46:20;;;;;;;10.80;5.97;;;5.10;99.90;;;;;;5022835;28;20048;-68
2022/12/01 04:48:49;;;;;;;11.05;5.82;;;5.00;99.90;;;;;;5030880;28;20512;-67
2022/12/01 04:51:15;;;;;;;11.43;5.90;;;5.00;99.90;;;;;;5019757;28;20447;-68
2022/12/01 04:53:40;;;;;;;12.65;6.18;;;5.10;99.90;;;;;;5028307;28;20037;-65
2022/12/01 04:56:06;;;;;;;10.05;5.68;;;5.10;99.90;;;;;;5021516;28;20049;-66
2022/12/01 04:58:33;;;;;;;14.75;6.50;;;5.00;99.90;;;;;;5032052;28;20049;-65
2022/12/01 05:01:03;;;;;;;13.70;6.90;;;5.00;99.90;;;;;;5034370;28;20519;-64
2022/12/01 05:03:29;;;;;;;13.32;6.28;;;5.00;99.90;;;;;;5034598;28;20045;-64
2022/12/01 05:06:14;;;;;;;13.98;6.70;;;5.00;99.90;;;;;;5035705;28;20045;-65
2022/12/01 05:08:40;;;;;;;12.98;6.55;;;5.00;99.90;;;;;;5034278;28;20041;-65
2022/12/01 05:11:07;;;;;;;11.82;6.20;;;4.90;99.90;;;;;;5035502;28;20063;-65
2022/12/01 05:13:36;;;;;;;14.13;6.53;;;4.90;99.90;;;;;;5035656;28;20124;-68
2022/12/01 05:16:07;;;;;;;12.52;6.60;;;4.90;99.90;;;;;;5035654;28;20140;-65
2022/12/01 05:18:33;;;;;;;16.77;7.47;;;4.90;99.90;;;;;;5035577;28;20068;-65
2022/12/01 05:20:59;;;;;;;13.50;6.72;;;4.90;99.90;;;;;;5035641;28;20095;-68
2022/12/01 05:23:30;;;;;;;13.48;7.45;;;4.90;99.90;;;;;;5035274;28;20045;-65
2022/12/01 05:25:55;;;;;;;14.85;6.45;;;4.80;99.90;;;;;;5033816;28;20492;-65
2022/12/01 05:28:23;;;;;;;12.02;6.47;;;4.90;99.90;;;;;;5035235;28;20071;-65
2022/12/01 05:30:49;;;;;;;15.90;7.55;;;4.90;99.90;;;;;;5034027;28;20411;-65
2022/12/01 05:33:16;;;;;;;14.90;7.65;;;4.80;99.90;;;;;;5035193;28;20033;-65
2022/12/01 05:35:42;;;;;;;13.45;7.10;;;4.80;99.90;;;;;;5035141;28;20064;-65
2022/12/01 05:38:08;;;;;;;13.60;7.53;;;4.80;99.90;;;;;;5035133;28;20085;-66
2022/12/01 05:40:34;;;;;;;13.32;6.50;;;4.80;99.90;;;;;;5034360;28;20132;-65
2022/12/01 05:43:00;;;;;;;14.85;6.50;;;4.80;99.90;;;;;;5035251;28;20041;-65
2022/12/01 05:45:26;;;;;;;15.15;7.15;;;4.70;99.90;;;;;;5035097;28;20045;-65
2022/12/01 05:47:56;;;;;;;16.40;7.97;;;4.70;99.90;;;;;;5034967;28;20112;-66
2022/12/01 05:50:23;;;;;;;19.63;7.60;;;4.70;99.90;;;;;;5034749;28;20038;-66
2022/12/01 05:52:49;;;;;;;15.38;7.07;;;4.70;99.90;;;;;;5034660;28;20029;-65
2022/12/01 05:55:15;;;;;;;13.52;7.68;;;4.70;99.90;;;;;;5034432;28;20037;-65
2022/12/01 05:57:41;;;;;;;13.00;7.22;;;4.70;99.90;;;;;;5033416;28;20108;-64
2022/12/01 06:00:07;;;;;;;16.83;7.85;;;4.70;99.90;;;;;;5033199;28;20038;-65
2022/12/01 06:02:33;;;;;;;17.02;8.30;;;4.70;99.90;;;;;;5016090;28;20033;-65
2022/12/01 06:04:59;;;;;;;15.50;7.03;;;4.70;99.90;;;;;;5014569;28;20099;-65
2022/12/01 06:07:25;;;;;;;16.02;7.75;;;4.70;99.90;;;;;;5019515;28;20048;-67
2022/12/01 06:09:54;;;;;;;15.75;7.47;;;4.70;99.90;;;;;;5034287;28;20510;-65
2022/12/01 06:12:20;;;;;;;14.75;7.70;;;4.70;99.90;;;;;;5034173;28;20029;-65
2022/12/01 06:14:46;;;;;;;18.52;8.57;;;4.80;99.90;;;;;;5033895;28;20048;-65
2022/12/01 06:17:11;;;;;;;14.55;8.05;;;4.70;99.90;;;;;;5032835;28;20501;-66
2022/12/01 06:19:38;;;;;;;12.80;6.82;;;4.70;99.90;;;;;;5034354;28;20045;-71
2022/12/01 06:22:04;;;;;;;14.60;7.32;;;4.60;99.90;;;;;;5034385;28;20067;-65
2022/12/01 06:24:30;;;;;;;14.68;7.65;;;4.70;99.90;;;;;;5034380;28;20041;-65
2022/12/01 06:26:55;;;;;;;14.95;7.85;;;4.70;99.90;;;;;;5034426;28;20444;-65
2022/12/01 06:29:21;;;;;;;14.88;7.95;;;4.70;99.90;;;;;;5031677;28;20523;-66
2022/12/01 06:31:47;;;;;;;16.73;7.88;;;4.70;99.90;;;;;;5033531;28;20033;-66
2022/12/01 06:34:12;;;;;;;16.90;8.23;;;4.60;99.90;;;;;;5034212;28;20428;-66
2022/12/01 06:36:38;;;;;;;16.10;8.13;;;4.60;99.90;;;;;;5032873;28;20052;-66
2022/12/01 06:39:08;;;;;;;17.42;8.15;;;4.60;99.90;;;;;;5034213;28;20049;-65
2022/12/01 06:41:38;;;;;;;15.70;7.53;;;4.60;99.90;;;;;;5034286;28;20053;-65
2022/12/01 06:44:04;;;;;;;18.05;7.97;;;4.60;99.90;;;;;;5034220;28;20080;-69
2022/12/01 06:46:30;;;;;;;15.82;8.13;;;4.60;99.90;;;;;;5034148;28;20120;-67
2022/12/01 06:48:56;;;;;;;15.30;6.90;;;4.60;99.90;;;;;;5034215;28;20041;-65
2022/12/01 06:51:22;;;;;;;12.90;7.80;;;4.60;99.90;;;;;;5034037;28;20509;-71
2022/12/01 06:53:51;;;;;;;16.52;8.82;;;4.60;99.90;;;;;;5034096;28;20516;-71
2022/12/01 06:56:17;;;;;;;16.10;7.22;;;4.50;99.90;;;;;;5033927;28;20049;-71
2022/12/01 06:58:43;;;;;;;15.07;7.57;;;4.60;99.90;;;;;;5033996;28;20029;-66
2022/12/01 07:01:10;;;;;;;13.20;7.57;;;4.60;99.90;;;;;;5034036;28;20049;-66
2022/12/01 07:03:36;;;;;;;17.48;8.07;;;4.60;99.90;;;;;;5033780;28;20124;-66
2022/12/01 07:06:03;;;;;;;17.00;8.23;;;4.50;99.90;;;;;;5033753;28;20120;-65
2022/12/01 07:08:30;;;;;;;17.40;8.57;;;4.50;99.90;;;;;;5033771;28;20500;-65
2022/12/01 07:11:04;;;;;;;19.17;8.27;;;4.50;99.90;;;;;;5033637;28;20041;-66
2022/12/01 07:13:30;;;;;;;18.20;8.20;;;4.60;99.90;;;;;;5033559;28;20392;-65
2022/12/01 07:15:57;;;;;;;16.67;8.25;;;4.60;99.90;;;;;;5033729;28;20047;-65
2022/12/01 07:18:22;;;;;;;18.13;7.82;;;4.60;99.90;;;;;;5032606;28;20042;-66
2022/12/01 07:20:48;;;;;;;15.95;7.93;;;4.60;99.90;;;;;;5033649;28;20155;-67
2022/12/01 07:23:14;;;;;;;17.65;8.65;;;4.60;99.90;;;;;;5033714;28;20103;-66
2022/12/01 07:25:40;;;;;;;19.02;8.10;;;4.60;99.90;;;;;;5033864;28;20095;-65
2022/12/01 07:28:05;;;;;;;14.00;7.72;;;4.60;99.90;;;;;;5033713;28;20037;-65
2022/12/01 07:30:31;;;;;;;14.77;8.10;;;4.60;99.90;;;;;;5033659;28;20128;-71
2022/12/01 07:32:57;;;;;;;15.43;7.75;;;4.60;99.90;;;;;;5033529;28;20441;-66
2022/12/01 07:35:22;;;;;;;18.75;8.27;;;4.60;99.90;;;;;;5031778;28;20042;-66
2022/12/01 07:37:56;;;;;;;17.88;8.68;;;4.60;99.90;;;;;;5033542;28;20176;-65
2022/12/01 07:40:22;;;;;;;18.15;8.73;;;4.60;99.90;;;;;;5031658;28;20044;-65
2022/12/01 07:42:48;;;;;;;18.48;8.30;;;4.60;99.90;;;;;;5031079;28;20041;-65
2022/12/01 07:45:14;;;;;;;17.92;9.10;;;4.60;99.90;;;;;;5031152;28;20049;-66
2022/12/01 07:47:39;;;;;;;16.45;7.97;;;4.60;99.90;;;;;;5030899;28;20041;-65
2022/12/01 07:50:06;;;;;;;19.63;9.20;;;4.60;99.90;;;;;;5031595;28;20496;-65
2022/12/01 07:52:31;;;;;;;19.95;9.07;;;4.60;99.90;;;;;;5031416;28;20116;-65
2022/12/01 07:54:57;;;;;;;17.88;8.30;;;4.60;99.90;;;;;;5032972;28;20160;-65
2022/12/01 07:57:23;;;;;;;17.52;8.60;;;4.60;99.90;;;;;;5032310;28;20048;-71
2022/12/01 07:59:49;;;;;;;20.15;8.77;;;4.70;99.90;;;;;;5033378;28;20037;-65
2022/12/01 08:02:14;;;;;;;17.08;8.68;;;4.70;99.90;;;;;;5033505;28;20045;-65
2022/12/01 08:04:41;;;;;;;18.00;9.30;;;4.70;99.90;;;;;;5037166;28;20487;-65
2022/12/01 08:07:07;;;;;;;18.40;8.98;;;4.70;99.90;;;;;;5035767;28;20042;-65
2022/12/01 08:09:33;;;;;;;17.90;8.68;;;4.70;99.90;;;;;;5036932;28;20439;-65
2022/12/01 08:11:59;;;;;;;19.50;9.18;;;4.70;99.90;;;;;;5036891;28;20041;-65
2022/12/01 08:14:24;;;;;;;16.90;8.73;;;4.70;99.90;;;;;;5036697;28;20059;-65
2022/12/01 08:16:50;;;;;;;17.30;8.98;;;4.70;99.90;;;;;;5019560;28;20049;-65
2022/12/01 08:19:16;;;;;;;22.17;9.85;;;4.70;99.90;;;;;;5016847;28;20045;-65
2022/12/01 08:21:41;;;;;;;18.02;8.43;;;4.70;99.90;;;;;;5016995;28;20026;-66
2022/12/01 08:24:09;;;;;;;17.77;8.45;;;4.70;99.90;;;;;;5016897;28;20038;-66
2022/12/01 08:26:35;;;;;;;15.88;8.52;;;4.70;99.90;;;;;;5016934;28;20073;-70
2022/12/01 08:29:00;;;;;;;19.75;9.48;;;4.70;99.90;;;;;;5016877;28;20062;-65
2022/12/01 08:31:30;;;;;;;19.98;9.55;;;4.70;99.90;;;;;;5018993;28;20144;-65
2022/12/01 08:33:56;;;;;;;16.23;8.65;;;4.80;99.90;;;;;;5016588;28;20034;-65
2022/12/01 08:36:22;;;;;;;18.90;8.95;;;4.80;99.90;;;;;;5016675;28;20176;-66
2022/12/01 08:38:52;;;;;;;16.20;8.43;;;4.80;99.90;;;;;;5016627;28;20059;-66
2022/12/01 08:41:18;;;;;;;16.45;8.13;;;4.80;99.90;;;;;;5016621;28;20041;-65
2022/12/01 08:43:44;;;;;;;17.80;8.90;;;4.90;99.90;;;;;;5016393;28;20045;-69
2022/12/01 08:46:11;;;;;;;20.30;10.00;;;4.90;99.90;;;;;;5016530;28;20046;-66
2022/12/01 08:48:38;;;;;;;18.00;8.68;;;4.90;99.90;;;;;;5016492;28;20129;-67
2022/12/01 08:51:12;;;;;;;20.23;9.68;;;4.90;99.90;;;;;;5016489;28;20201;-65
2022/12/01 08:53:40;;;;;;;18.45;9.90;;;5.00;99.90;;;;;;5016399;28;20034;-65
2022/12/01 08:56:22;;;;;;;16.63;9.50;;;5.00;99.90;;;;;;5016094;28;20058;-66
2022/12/01 08:58:49;;;;;;;18.40;9.63;;;5.00;99.90;;;;;;5016317;28;20128;-66
2022/12/01 09:01:17;;;;;;;17.17;8.50;;;5.00;99.90;;;;;;5012941;28;20401;-66
2022/12/01 09:03:43;;;;;;;17.95;9.18;;;5.00;99.90;;;;;;5029992;28;20036;-66
2022/12/01 09:06:19;;;;;;;19.90;9.20;;;5.00;99.90;;;;;;5033805;28;20045;-65
2022/12/01 09:08:45;;;;;;;20.90;9.60;;;5.10;99.90;;;;;;5035817;28;20030;-70
2022/12/01 09:11:13;;;;;;;17.88;9.55;;;5.20;99.90;;;;;;5035741;28;20738;-66
2022/12/01 09:13:39;;;;;;;18.17;8.95;;;5.20;99.90;;;;;;5035434;28;20091;-65
2022/12/01 09:16:10;;;;;;;17.70;8.80;;;5.30;99.90;;;;;;5034885;28;20048;-66
2022/12/01 09:18:36;;;;;;;19.38;9.68;;;5.40;99.90;;;;;;5035868;28;20397;-70
2022/12/01 09:21:13;;;;;;;16.67;8.63;;;5.60;99.90;;;;;;5035686;28;20389;-65
2022/12/01 09:23:39;;;;;;;17.75;8.63;;;5.80;99.90;;;;;;5035588;28;20044;-66
2022/12/01 09:26:05;;;;;;;17.95;9.43;;;5.90;99.90;;;;;;5035497;28;20065;-66
2022/12/01 09:28:31;;;;;;;18.02;8.25;;;6.20;99.90;;;;;;5035455;28;20053;-66
2022/12/01 09:31:10;;;;;;;16.90;9.10;;;5.90;99.90;;;;;;5035524;28;20033;-66
2022/12/01 09:33:39;;;;;;;16.25;8.20;;;6.00;99.90;;;;;;5035488;28;20046;-70
2022/12/01 09:36:06;;;;;;;13.40;7.60;;;6.00;99.90;;;;;;5035333;28;20041;-66
2022/12/01 09:38:34;;;;;;;17.42;8.60;;;6.10;99.90;;;;;;5034069;28;20045;-66
2022/12/01 09:41:29;;;;;;;16.10;8.27;;;6.20;99.90;;;;;;5035346;28;20500;-68
2022/12/01 09:44:04;;;;;;;14.82;7.90;;;5.90;99.90;;;;;;5018211;28;20041;-69
2022/12/01 09:46:41;;;;;;;15.95;8.10;;;6.00;99.90;;;;;;5035107;28;20048;-66
2022/12/01 09:49:17;;;;;;;12.88;7.40;;;6.00;99.90;;;;;;5035209;28;20092;-65
2022/12/01 09:51:43;;;;;;;16.90;8.43;;;5.80;99.90;;;;;;5035027;28;20037;-66
2022/12/01 09:54:12;;;;;;;15.32;8.63;;;5.70;99.90;;;;;;5034906;28;20564;-65
2022/12/01 09:56:49;;;;;;;14.75;7.55;;;5.60;99.90;;;;;;5034760;28;20049;-66
2022/12/01 09:59:26;;;;;;;17.55;8.15;;;5.60;99.90;;;;;;5034898;28;20088;-65
2022/12/01 10:01:59;;;;;;;17.30;8.38;;;5.50;99.90;;;;;;5035002;28;20439;-70
2022/12/01 10:04:39;;;;;;;14.32;7.50;;;5.60;99.90;;;;;;5034905;28;20057;-69
2022/12/01 10:07:24;;;;;;;15.75;7.95;;;5.60;99.90;;;;;;5034676;28;20041;-65
2022/12/01 10:10:05;;;;;;;13.82;8.07;;;5.60;99.90;;;;;;5034726;28;20132;-71
2022/12/01 10:12:34;;;;;;;13.57;7.97;;;5.80;99.90;;;;;;5021467;28;20041;-71
2022/12/01 10:15:16;;;;;;;14.05;7.53;;;5.90;99.90;;;;;;5014961;28;20040;-66
2022/12/01 10:18:25;;;;;;;14.82;7.80;;;6.00;99.90;;;;;;5014652;28;20397;-66
2022/12/01 10:21:18;;;;;;;10.95;6.78;;;5.90;99.90;;;;;;4994753;28;20042;-70
2022/12/01 10:24:01;;;;;;;15.27;7.75;;;5.90;99.90;;;;;;5014191;28;20096;-66
2022/12/01 10:27:29;;;;;;;12.13;6.88;;;6.00;99.90;;;;;;5013838;28;20038;-70
2022/12/01 10:30:14;;;;;;;15.93;8.15;;;6.00;99.90;;;;;;4954092;29;20043;-65
2022/12/01 10:32:40;;;;;;;14.05;7.68;;;6.00;99.90;;;;;;4954039;29;20038;-66
2022/12/01 10:35:09;;;;;;;13.77;7.55;;;6.00;99.90;;;;;;5004566;28;20042;-66
2022/12/01 10:37:37;;;;;;;13.43;7.22;;;6.00;99.90;;;;;;5014395;28;20535;-68
2022/12/01 10:40:03;;;;;;;12.95;6.63;;;6.10;99.90;;;;;;5014588;28;20048;-65
2022/12/01 10:42:35;;;;;;;13.98;7.05;;;6.10;99.90;;;;;;5014303;28;20042;-66
2022/12/01 10:45:05;;;;;;;10.88;6.22;;;6.10;99.90;;;;;;5014467;28;20132;-66
2022/12/01 10:47:31;;;;;;;12.33;6.93;;;6.00;99.90;;;;;;5014372;28;20037;-66
2022/12/01 10:49:57;;;;;;;13.00;7.13;;;6.10;99.90;;;;;;5014389;28;20284;-70
2022/12/01 10:52:39;;;;;;;11.60;6.60;;;6.20;99.90;;;;;;5014306;28;20041;-71
2022/12/01 10:55:27;;;;;;;8.77;5.13;;;6.10;99.90;;;;;;5014216;28;20401;-65
2022/12/01 10:57:55;;;;;;;10.50;5.88;;;6.20;99.90;;;;;;5014318;28;20582;-66
2022/12/01 11:00:26;;;;;;;12.30;6.70;;;6.20;99.90;;;;;;5014402;28;20046;-70
2022/12/01 11:02:53;;;;;;;12.00;6.07;;;6.20;99.90;;;;;;5014321;28;20060;-66
2022/12/01 11:05:32;;;;;;;11.13;6.45;;;6.10;99.90;;;;;;5014221;28;20181;-65
2022/12/01 11:07:58;;;;;;;10.43;6.18;;;6.10;99.90;;;;;;5014193;28;20517;-66
2022/12/01 11:10:31;;;;;;;11.75;6.55;;;6.00;99.90;;;;;;5014267;28;20077;-71
2022/12/01 11:13:35;;;;;;;10.98;6.20;;;5.90;99.90;;;;;;5014188;28;20408;-66
2022/12/01 11:16:04;;;;;;;12.13;6.00;;;6.00;99.90;;;;;;4953302;28;20434;-66
2022/12/01 11:18:35;;;;;;;11.82;6.30;;;6.00;99.90;;;;;;5004359;28;20123;-66
2022/12/01 11:21:07;;;;;;;;;;;5.90;99.90;;;;;;5014594;28;20515;-65
2022/12/01 11:23:43;;;;;;;10.38;5.32;;;5.90;99.90;;;;;;5014028;28;20431;-70
2022/12/01 11:26:33;;;;;;;9.98;5.18;;;6.00;99.90;;;;;;5013849;28;20046;-65
2022/12/01 11:29:03;;;;;;;10.65;5.82;;;6.10;99.90;;;;;;5014031;28;20116;-66
2022/12/01 11:31:41;;;;;;;10.43;6.15;;;6.10;99.90;;;;;;5014090;28;20155;-66
2022/12/01 11:34:17;;;;;;;9.73;5.43;;;6.10;99.90;;;;;;5012671;28;20041;-66
2022/12/01 11:36:46;;;;;;;10.90;5.93;;;6.10;99.90;;;;;;5013768;28;20061;-71
2022/12/01 11:39:40;;;;;;;10.73;5.82;;;6.10;99.90;;;;;;5017023;28;20033;-65
2022/12/01 11:42:26;;;;;;;8.02;4.63;;;6.10;99.90;;;;;;5017796;28;20037;-65
2022/12/01 11:44:56;;;;;;;10.93;5.80;;;6.00;99.90;;;;;;5017622;28;20042;-66
2022/12/01 11:47:24;;;;;;;9.38;5.20;;;5.90;99.90;;;;;;5017814;28;20109;-66
2022/12/01 11:49:58;;;;;;;10.15;5.78;;;5.90;99.90;;;;;;5016358;28;20038;-67
2022/12/01 11:52:26;;;;;;;9.68;5.05;;;6.00;99.90;;;;;;5016370;28;20038;-66
2022/12/01 11:55:15;;;;;;;8.93;5.07;;;6.00;99.90;;;;;;5016063;28;20037;-71
2022/12/01 11:57:49;;;;;;;9.48;5.05;;;6.10;99.90;;;;;;5017290;28;20045;-70
2022/12/01 12:00:18;;;;;;;11.65;6.03;;;6.10;99.90;;;;;;5016194;28;20038;-66
2022/12/01 12:02:59;;;;;;;11.00;5.35;;;6.00;99.90;;;;;;5017447;28;20046;-66
2022/12/01 12:05:52;;;;;;;10.32;4.95;;;6.00;99.90;;;;;;5016035;28;20049;-66
2022/12/01 12:08:44;;;;;;;7.10;4.50;;;6.00;99.90;;;;;;5017172;28;20042;-65
2022/12/01 12:11:19;;;;;;;6.93;4.47;;;6.00;99.90;;;;;;5015843;28;20072;-71
2022/12/01 12:14:03;;;;;;;7.53;4.20;;;5.90;99.90;;;;;;5017129;28;20037;-71
2022/12/01 12:16:50;;;;;;;7.47;4.10;;;5.90;99.90;;;;;;5033585;28;20112;-66
2022/12/01 12:19:42;;;;;;;7.40;4.28;;;5.80;99.90;;;;;;5036809;28;20041;-66
2022/12/01 12:22:26;;;;;;;8.60;4.55;;;5.80;99.90;;;;;;5036694;28;20409;-67
2022/12/01 12:25:10;;;;;;;8.73;4.75;;;5.80;99.90;;;;;;5036458;28;20045;-66
2022/12/01 12:27:58;;;;;;;7.57;4.45;;;5.80;99.90;;;;;;5036685;28;20061;-66
2022/12/01 12:30:39;;;;;;;6.97;4.35;;;5.70;99.90;;;;;;5036609;28;20038;-66
2022/12/01 12:33:07;;;;;;;6.25;3.97;;;5.60;99.90;;;;;;5035293;28;20048;-65
2022/12/01 12:35:45;;;;;;;8.07;4.07;;;5.70;99.90;;;;;;5036574;28;20116;-66
2022/12/01 12:38:33;;;;;;;6.00;3.90;;;5.60;99.90;;;;;;5036509;28;20436;-65
2022/12/01 12:41:17;;;;;;;6.97;4.03;;;5.60;99.90;;;;;;5032223;28;20124;-65
2022/12/01 12:43:49;;;;;;;7.75;4.40;;;5.60;99.90;;;;;;5036406;28;20480;-65
2022/12/01 12:46:37;;;;;;;8.35;4.45;;;5.50;99.90;;;;;;5036349;28;20044;-67
2022/12/01 12:49:21;;;;;;;7.13;4.25;;;5.50;99.90;;;;;;5036039;28;20065;-65
2022/12/01 12:52:09;;;;;;;6.00;3.95;;;5.60;99.90;;;;;;5036189;28;20102;-65
2022/12/01 12:54:52;;;;;;;6.88;3.88;;;5.50;99.90;;;;;;5036537;28;20513;-65
2022/12/01 12:57:28;;;;;;;7.63;4.50;;;5.50;99.90;;;;;;5036184;28;20053;-65
2022/12/01 13:00:05;;;;;;;6.70;3.80;;;5.40;99.90;;;;;;5036368;28;20045;-65
2022/12/01 13:02:42;;;;;;;8.50;3.85;;;5.40;99.90;;;;;;5034733;28;20085;-67
2022/12/01 13:05:14;;;;;;;7.03;4.00;;;5.40;99.90;;;;;;5023824;28;20068;-69
2022/12/01 13:08:09;;;;;;;7.55;3.47;;;5.50;99.90;;;;;;5027956;28;20111;-66
2022/12/01 13:11:07;;;;;;;7.10;4.40;;;5.40;99.90;;;;;;5023132;28;20049;-65
2022/12/01 13:13:39;;;;;;;7.07;4.03;;;5.40;99.90;;;;;;5035799;28;20048;-65
2022/12/01 13:16:12;;;;;;;9.02;5.07;;;5.30;99.90;;;;;;5035752;28;20041;-65
2022/12/01 13:18:49;;;;;;;9.45;4.38;;;5.30;99.90;;;;;;5035720;28;20073;-65
2022/12/01 13:21:20;;;;;;;8.02;4.70;;;5.30;99.90;;;;;;5035587;28;20116;-67
2022/12/01 13:23:48;;;;;;;8.35;4.32;;;5.40;99.90;;;;;;5035509;28;20083;-66